createdAt,value
2022-08-17T00:00:43.078Z,68.82
2022-08-17T00:03:32.504Z,68.76
2022-08-17T00:06:14.125Z,68.99
2022-08-17T00:08:51.561Z,69.24
2022-08-17T00:11:38.631Z,69.17
2022-08-17T00:14:14.369Z,69.21
2022-08-17T00:16:57.336Z,69.31
2022-08-17T00:19:27.189Z,69.31
2022-08-17T00:22:31.324Z,69.37
2022-08-17T00:24:49.252Z,69.55
2022-08-17T00:27:18.842Z,69.59
2022-08-17T00:29:48.374Z,69.58
2022-08-17T00:33:12.287Z,69.71
2022-08-17T00:35:09.880Z,69.92
2022-08-17T00:37:39.054Z,70.17
2022-08-17T00:40:14.034Z,70.16
2022-08-17T00:42:44.411Z,70.03
2022-08-17T00:45:16.582Z,69.95
2022-08-17T00:47:45.420Z,70.16
2022-08-17T00:50:19.223Z,70.20
2022-08-17T00:52:57.550Z,70.30
2022-08-17T00:55:27.641Z,70.46
2022-08-17T00:58:02.732Z,70.41
2022-08-17T01:00:42.268Z,70.84
2022-08-17T01:03:20.839Z,71.05
2022-08-17T01:05:53.732Z,71.27
2022-08-17T01:08:27.321Z,71.30
2022-08-17T01:11:02.219Z,71.39
2022-08-17T01:13:43.611Z,71.65
2022-08-17T01:16:38.927Z,71.57
2022-08-17T01:19:42.047Z,71.59
2022-08-17T01:22:23.672Z,71.96
2022-08-17T01:24:56.999Z,71.99
2022-08-17T01:27:26.993Z,72.32
2022-08-17T01:30:02.785Z,72.31
2022-08-17T01:32:32.109Z,72.12
2022-08-17T01:35:02.327Z,72.24
2022-08-17T01:37:36.103Z,72.24
2022-08-17T01:40:43.259Z,72.26
2022-08-17T01:43:24.972Z,72.30
2022-08-17T01:46:03.569Z,72.38
2022-08-17T01:48:36.606Z,72.70
2022-08-17T01:51:07.684Z,72.79
2022-08-17T01:53:42.952Z,72.82
2022-08-17T01:56:16.135Z,72.65
2022-08-17T01:58:45.820Z,72.77
2022-08-17T02:01:24.618Z,72.80
2022-08-17T02:04:00.977Z,72.76
2022-08-17T02:06:44.950Z,72.76
2022-08-17T02:09:29.662Z,72.83
2022-08-17T02:12:38.962Z,72.93
2022-08-17T02:14:52.398Z,72.86
2022-08-17T02:17:21.240Z,72.86
2022-08-17T02:19:50.051Z,72.94
2022-08-17T02:22:19.329Z,72.94
2022-08-17T02:24:59.870Z,73.12
2022-08-17T02:27:31.042Z,73.10
2022-08-17T02:29:59.860Z,73.35
2022-08-17T02:32:29.653Z,73.43
2022-08-17T02:35:00.379Z,73.66
2022-08-17T02:37:30.755Z,73.69
2022-08-17T02:40:00.082Z,73.65
2022-08-17T02:42:36.592Z,73.64
2022-08-17T02:45:11.274Z,73.64
2022-08-17T02:47:40.323Z,73.67
2022-08-17T02:50:12.984Z,73.82
2022-08-17T02:52:44.463Z,73.78
2022-08-17T02:55:32.811Z,73.73
2022-08-17T02:58:03.641Z,73.72
2022-08-17T03:00:41.658Z,73.98
2022-08-17T03:03:13.723Z,73.87
2022-08-17T03:05:43.139Z,73.82
2022-08-17T03:08:13.261Z,73.86
2022-08-17T03:10:44.891Z,73.83
2022-08-17T03:13:14.826Z,73.76
2022-08-17T03:15:46.113Z,73.70
2022-08-17T03:18:25.444Z,73.85
2022-08-17T03:20:58.552Z,74.04
2022-08-17T03:23:29.429Z,74.00
2022-08-17T03:26:00.271Z,74.10
2022-08-17T03:28:29.767Z,74.15
2022-08-17T03:30:58.553Z,74.08
2022-08-17T03:33:27.583Z,74.06
2022-08-17T03:35:56.513Z,74.12
2022-08-17T03:38:26.573Z,74.25
2022-08-17T03:40:59.438Z,74.31
2022-08-17T03:43:31.144Z,74.39
2022-08-17T03:46:28.943Z,74.58
2022-08-17T03:49:27.218Z,74.79
2022-08-17T03:52:16.522Z,74.80
2022-08-17T03:55:04.311Z,74.81
2022-08-17T03:57:33.139Z,74.61
2022-08-17T04:00:01.924Z,74.68
2022-08-17T04:02:42.920Z,74.86
2022-08-17T04:05:11.859Z,74.94
2022-08-17T04:07:41.745Z,74.91
2022-08-17T04:10:10.629Z,74.77
2022-08-17T04:12:54.636Z,74.88
2022-08-17T04:15:23.346Z,75.00
2022-08-17T04:17:52.558Z,75.18
2022-08-17T04:20:24.423Z,74.99
2022-08-17T04:23:02.227Z,75.11
2022-08-17T04:25:34.897Z,75.24
2022-08-17T04:28:05.675Z,75.14
2022-08-17T04:30:47.426Z,75.05
2022-08-17T04:33:24.260Z,75.01
2022-08-17T04:35:58.190Z,74.88
2022-08-17T04:38:34.754Z,74.92
2022-08-17T04:41:23.393Z,74.94
2022-08-17T04:43:56.086Z,74.97
2022-08-17T04:46:32.855Z,75.05
2022-08-17T04:49:06.724Z,75.07
2022-08-17T04:51:46.690Z,74.90
2022-08-17T04:54:24.717Z,74.91
2022-08-17T04:56:53.520Z,74.69
2022-08-17T04:59:23.020Z,74.54
2022-08-17T05:01:52.715Z,74.58
2022-08-17T05:04:34.634Z,74.38
2022-08-17T05:07:04.756Z,74.30
2022-08-17T05:09:33.628Z,74.18
2022-08-17T05:12:03.173Z,74.03
2022-08-17T05:14:33.075Z,73.85
2022-08-17T05:17:07.040Z,73.71
2022-08-17T05:19:39.757Z,73.70
2022-08-17T05:22:08.686Z,73.35
2022-08-17T05:24:39.130Z,73.33
2022-08-17T05:27:16.761Z,72.91
2022-08-17T05:29:48.214Z,73.00
2022-08-17T05:32:39.480Z,72.88
2022-08-17T05:35:06.641Z,72.80
2022-08-17T05:37:35.514Z,72.72
2022-08-17T05:40:08.191Z,72.32
2022-08-17T05:42:41.706Z,72.14
2022-08-17T05:45:55.957Z,71.75
2022-08-17T05:49:30.857Z,71.76
2022-08-17T05:56:03.037Z,70.92
2022-08-17T05:59:19.850Z,69.97
2022-08-17T06:02:18.858Z,69.71
2022-08-17T06:05:50.183Z,69.55
2022-08-17T06:09:07.519Z,68.35
2022-08-17T06:11:58.968Z,66.98
2022-08-17T06:14:34.202Z,65.79
2022-08-17T06:17:22.963Z,64.51
2022-08-17T06:20:00.519Z,63.88
2022-08-17T06:22:41.314Z,62.40
2022-08-17T06:25:30.893Z,61.00
2022-08-17T06:28:23.779Z,60.46
2022-08-17T06:31:24.362Z,59.33
2022-08-17T06:34:03.507Z,57.82
2022-08-17T06:37:15.415Z,57.06
2022-08-17T06:40:16.089Z,55.96
2022-08-17T06:43:48.119Z,54.93
2022-08-17T06:46:45.928Z,54.88
2022-08-17T06:49:55.197Z,53.53
2022-08-17T06:53:10.031Z,52.38
2022-08-17T06:56:53.330Z,52.62
2022-08-17T06:59:55.806Z,52.11
2022-08-17T07:03:22.012Z,51.36
2022-08-17T07:06:56.193Z,51.37
2022-08-17T07:09:39.732Z,49.88
2022-08-17T07:12:24.494Z,49.49
2022-08-17T07:15:05.562Z,49.08
2022-08-17T07:17:47.699Z,48.10
2022-08-17T07:20:24.991Z,47.36
2022-08-17T07:23:20.076Z,46.95
2022-08-17T07:25:51.998Z,45.29
2022-08-17T07:28:23.564Z,44.64
2022-08-17T07:30:54.576Z,44.28
2022-08-17T07:33:36.962Z,43.67
2022-08-17T07:36:30.081Z,43.32
2022-08-17T07:39:02.939Z,42.65
2022-08-17T07:41:53.061Z,42.14
2022-08-17T07:44:27.883Z,42.04
2022-08-17T07:47:29.937Z,41.57
2022-08-17T07:50:29.741Z,41.43
2022-08-17T07:53:17.248Z,41.50
2022-08-17T07:56:17.015Z,40.94
2022-08-17T07:59:23.592Z,40.77
2022-08-17T08:01:55.562Z,40.57
2022-08-17T08:07:51.339Z,39.75
2022-08-17T08:10:42.722Z,39.35
2022-08-17T08:13:28.929Z,39.37
2022-08-17T08:16:27.233Z,39.02
2022-08-17T08:19:01.340Z,38.84
2022-08-17T08:22:15.460Z,38.63
2022-08-17T08:25:16.318Z,39.21
2022-08-17T08:28:09.119Z,38.83
2022-08-17T08:30:50.276Z,38.31
2022-08-17T08:33:55.119Z,38.26
2022-08-17T08:37:14.761Z,37.66
2022-08-17T08:40:08.937Z,37.51
2022-08-17T08:43:02.567Z,37.28
2022-08-17T08:50:37.167Z,35.98
2022-08-17T08:53:07.244Z,35.96
2022-08-17T08:56:59.006Z,35.72
2022-08-17T09:00:00.909Z,35.52
2022-08-17T09:03:17.694Z,35.28
2022-08-17T09:06:33.509Z,34.40
2022-08-17T09:09:21.369Z,33.95
2022-08-17T09:12:04.068Z,34.08
2022-08-17T09:14:51.177Z,33.94
2022-08-17T09:17:40.300Z,33.13
2022-08-17T09:20:59.753Z,32.53
2022-08-17T09:26:41.170Z,32.41
2022-08-17T09:29:18.285Z,32.68
2022-08-17T09:31:57.678Z,32.65
2022-08-17T09:34:48.497Z,32.38
2022-08-17T09:37:40.309Z,32.30
2022-08-17T09:40:38.013Z,32.41
2022-08-17T09:43:52.773Z,32.24
2022-08-17T09:46:45.038Z,31.78
2022-08-17T09:49:25.346Z,31.88
2022-08-17T09:52:19.626Z,32.12
2022-08-17T09:54:56.024Z,32.29
2022-08-17T09:57:54.261Z,32.24
2022-08-17T10:00:36.002Z,31.70
2022-08-17T10:03:49.652Z,32.61
2022-08-17T10:06:33.970Z,32.69
2022-08-17T10:09:16.048Z,32.22
2022-08-17T10:12:17.810Z,31.38
2022-08-17T10:15:22.742Z,31.79
2022-08-17T10:18:31.810Z,31.85
2022-08-17T10:21:28.994Z,31.62
2022-08-17T10:25:21.453Z,31.12
2022-08-17T10:27:54.545Z,31.41
2022-08-17T10:30:36.638Z,31.23
2022-08-17T10:33:24.127Z,30.33
2022-08-17T10:36:18.220Z,30.13
2022-08-17T10:39:01.606Z,30.71
2022-08-17T10:41:42.884Z,30.37
2022-08-17T10:44:48.909Z,30.20
2022-08-17T10:47:19.321Z,30.61
2022-08-17T10:49:54.360Z,30.95
2022-08-17T10:52:24.089Z,30.61
2022-08-17T10:55:13.459Z,30.81
2022-08-17T10:57:50.393Z,30.99
2022-08-17T11:00:27.000Z,30.89
2022-08-17T11:03:09.454Z,31.28
2022-08-17T11:06:13.977Z,31.84
2022-08-17T11:09:02.805Z,31.95
2022-08-17T11:11:47.862Z,32.19
2022-08-17T11:14:23.927Z,32.42
2022-08-17T11:17:21.223Z,33.54
2022-08-17T11:20:28.876Z,33.41
2022-08-17T11:23:18.369Z,33.65
2022-08-17T11:25:59.992Z,34.07
2022-08-17T11:28:36.108Z,34.65
2022-08-17T11:31:38.645Z,35.22
2022-08-17T11:34:23.553Z,35.28
2022-08-17T11:37:14.060Z,36.14
2022-08-17T11:40:23.613Z,36.06
2022-08-17T11:43:25.684Z,35.78
2022-08-17T11:46:59.395Z,35.45
2022-08-17T11:50:12.820Z,35.73
2022-08-17T11:52:49.163Z,36.07
2022-08-17T11:55:44.858Z,36.35
2022-08-17T11:58:29.696Z,35.20
2022-08-17T12:01:02.343Z,35.23
2022-08-17T12:03:37.829Z,35.81
2022-08-17T12:06:45.049Z,35.93
2022-08-17T12:09:25.258Z,35.62
2022-08-17T12:12:12.656Z,34.11
2022-08-17T12:15:10.029Z,33.78
2022-08-17T12:17:53.912Z,33.56
2022-08-17T12:20:43.027Z,33.32
2022-08-17T12:24:06.732Z,33.18
2022-08-17T12:27:02.515Z,32.86
2022-08-17T12:29:39.917Z,32.76
2022-08-17T12:32:21.237Z,33.03
2022-08-17T12:34:56.466Z,32.84
2022-08-17T12:37:34.651Z,32.52
2022-08-17T12:40:27.497Z,32.66
2022-08-17T12:43:02.657Z,32.61
2022-08-17T12:45:44.893Z,32.45
2022-08-17T12:48:25.810Z,32.27
2022-08-17T12:51:20.321Z,32.57
2022-08-17T12:53:55.641Z,32.66
2022-08-17T12:56:25.318Z,32.39
2022-08-17T12:59:00.081Z,32.42
2022-08-17T13:01:42.255Z,32.26
2022-08-17T13:04:17.635Z,32.71
2022-08-17T13:07:01.706Z,32.20
2022-08-17T13:09:40.382Z,32.44
2022-08-17T13:12:13.665Z,32.05
2022-08-17T13:14:46.845Z,31.76
2022-08-17T13:17:28.247Z,32.33
2022-08-17T13:20:16.647Z,32.75
2022-08-17T13:23:27.104Z,32.86
2022-08-17T13:26:16.951Z,32.30
2022-08-17T13:29:02.109Z,32.49
2022-08-17T13:32:13.553Z,32.68
2022-08-17T13:35:15.012Z,33.25
2022-08-17T13:38:09.661Z,33.29
2022-08-17T13:40:55.343Z,33.29
2022-08-17T13:43:46.036Z,33.27
2022-08-17T13:46:28.931Z,33.01
2022-08-17T13:49:12.672Z,33.32
2022-08-17T13:51:51.492Z,33.20
2022-08-17T13:54:34.003Z,33.18
2022-08-17T13:57:29.952Z,33.25
2022-08-17T14:00:31.086Z,33.25
2022-08-17T14:03:05.480Z,32.94
2022-08-17T14:06:56.228Z,32.84
2022-08-17T14:09:54.476Z,32.76
2022-08-17T14:12:30.766Z,33.17
2022-08-17T14:15:03.867Z,33.25
2022-08-17T14:17:38.465Z,33.21
2022-08-17T14:20:11.895Z,33.24
2022-08-17T14:22:46.475Z,33.41
2022-08-17T14:25:24.188Z,33.92
2022-08-17T14:27:55.827Z,34.13
2022-08-17T14:30:33.389Z,34.07
2022-08-17T14:33:06.074Z,34.23
2022-08-17T14:35:36.791Z,33.96
2022-08-17T14:38:09.725Z,33.67
2022-08-17T14:40:43.389Z,33.85
2022-08-17T14:43:21.284Z,33.90
2022-08-17T14:45:52.786Z,33.87
2022-08-17T14:48:22.144Z,33.86
2022-08-17T14:50:54.446Z,34.08
2022-08-17T14:53:24.751Z,33.98
2022-08-17T14:56:04.411Z,34.60
2022-08-17T14:58:36.216Z,34.72
2022-08-17T15:01:16.763Z,35.06
2022-08-17T15:03:58.523Z,35.43
2022-08-17T15:06:39.948Z,35.67
2022-08-17T15:09:21.758Z,35.69
2022-08-17T15:11:54.336Z,35.16
2022-08-17T15:14:36.790Z,34.83
2022-08-17T15:17:18.252Z,34.79
2022-08-17T15:19:50.430Z,34.78
2022-08-17T15:22:29.830Z,34.77
2022-08-17T15:25:13.089Z,34.68
2022-08-17T15:28:06.636Z,34.81
2022-08-17T15:30:45.369Z,34.88
2022-08-17T15:33:24.365Z,34.81
2022-08-17T15:36:10.460Z,34.66
2022-08-17T15:38:42.122Z,34.82
2022-08-17T15:41:18.314Z,34.97
2022-08-17T15:43:51.206Z,35.15
2022-08-17T15:46:26.430Z,35.14
2022-08-17T15:49:01.078Z,34.83
2022-08-17T15:51:38.173Z,34.88
2022-08-17T15:54:19.298Z,34.89
2022-08-17T15:56:55.037Z,34.92
2022-08-17T15:59:26.589Z,35.08
2022-08-17T16:03:13.587Z,35.10
2022-08-17T16:04:52.692Z,35.15
2022-08-17T16:07:26.835Z,35.12
2022-08-17T16:09:56.276Z,35.12
2022-08-17T16:12:31.331Z,35.51
2022-08-17T16:15:06.168Z,35.96
2022-08-17T16:17:40.668Z,35.90
2022-08-17T16:20:20.495Z,35.62
2022-08-17T16:22:58.917Z,35.64
2022-08-17T16:25:51.951Z,35.88
2022-08-17T16:28:35.598Z,36.14
2022-08-17T16:31:11.984Z,36.18
2022-08-17T16:34:15.986Z,36.09
2022-08-17T16:36:54.577Z,36.26
2022-08-17T16:39:30.864Z,36.44
2022-08-17T16:42:06.736Z,36.65
2022-08-17T16:44:37.902Z,36.68
2022-08-17T16:47:10.768Z,36.83
2022-08-17T16:49:46.108Z,36.91
2022-08-17T16:52:33.104Z,36.96
2022-08-17T16:55:13.478Z,36.97
2022-08-17T16:57:53.051Z,36.86
2022-08-17T17:00:26.850Z,36.81
2022-08-17T17:03:19.252Z,36.90
2022-08-17T17:06:37.821Z,36.83
2022-08-17T17:09:25.933Z,36.84
2022-08-17T17:12:05.818Z,36.92
2022-08-17T17:14:43.257Z,36.97
2022-08-17T17:20:43.348Z,37.41
2022-08-17T17:23:40.745Z,37.78
2022-08-17T17:27:08.949Z,38.12
2022-08-17T17:30:10.170Z,38.33
2022-08-17T17:33:28.167Z,38.52
2022-08-17T17:36:31.986Z,38.48
2022-08-17T17:39:13.556Z,38.63
2022-08-17T17:41:59.292Z,38.76
2022-08-17T17:44:41.300Z,39.01
2022-08-17T17:47:12.564Z,39.26
2022-08-17T17:49:48.891Z,39.27
2022-08-17T17:52:30.055Z,39.34
2022-08-17T17:55:30.100Z,39.38
2022-08-17T17:58:29.353Z,39.34
2022-08-17T18:01:31.005Z,39.60
2022-08-17T18:18:22.030Z,40.35
2022-08-17T18:24:26.360Z,40.68
2022-08-17T18:28:19.025Z,40.92
2022-08-17T18:35:23.771Z,41.74
2022-08-17T18:38:22.187Z,42.02
2022-08-17T18:41:35.296Z,42.18
2022-08-17T18:44:33.914Z,42.42
2022-08-17T18:47:17.212Z,42.65
2022-08-17T18:50:08.017Z,42.79
2022-08-17T18:52:44.189Z,42.92
2022-08-17T18:55:34.559Z,43.16
2022-08-17T18:58:27.518Z,43.39
2022-08-17T19:01:00.802Z,43.58
2022-08-17T19:03:44.454Z,43.90
2022-08-17T19:06:38.213Z,43.92
2022-08-17T19:10:09.392Z,44.28
2022-08-17T19:13:13.964Z,44.70
2022-08-17T19:16:14.997Z,45.15
2022-08-17T19:19:30.961Z,45.36
2022-08-17T19:22:50.596Z,45.61
2022-08-17T19:25:48.401Z,45.72
2022-08-17T19:29:13.055Z,46.00
2022-08-17T19:31:44.640Z,46.19
2022-08-17T19:34:30.333Z,46.48
2022-08-17T19:37:39.211Z,46.51
2022-08-17T19:41:52.179Z,46.61
2022-08-17T19:48:28.404Z,47.39
2022-08-17T19:51:24.556Z,47.59
2022-08-17T19:58:29.739Z,48.38
2022-08-17T20:01:16.116Z,48.85
2022-08-17T20:04:00.421Z,49.11
2022-08-17T20:06:38.276Z,49.68
2022-08-17T20:09:20.851Z,49.86
2022-08-17T20:12:04.313Z,49.96
2022-08-17T20:14:53.926Z,50.18
2022-08-17T20:17:35.287Z,50.60
2022-08-17T20:20:39.663Z,50.79
2022-08-17T20:23:20.819Z,51.13
2022-08-17T20:26:05.028Z,51.39
2022-08-17T20:28:39.199Z,51.58
2022-08-17T20:31:46.095Z,51.77
2022-08-17T20:34:33.764Z,51.83
2022-08-17T20:37:15.659Z,51.84
2022-08-17T20:40:07.269Z,52.35
2022-08-17T20:43:49.098Z,52.59
2022-08-17T20:47:04.235Z,52.81
2022-08-17T20:50:38.874Z,53.35
2022-08-17T20:53:52.297Z,53.58
2022-08-17T20:56:44.110Z,53.83
2022-08-17T20:59:39.314Z,53.78
2022-08-17T21:02:31.016Z,53.70
2022-08-17T21:06:17.351Z,53.90
2022-08-17T21:09:39.297Z,54.46
2022-08-17T21:13:10.127Z,54.79
2022-08-17T21:16:04.870Z,55.16
2022-08-17T21:19:16.898Z,55.39
2022-08-17T21:22:33.368Z,55.53
2022-08-17T21:25:27.677Z,55.69
2022-08-17T21:28:23.329Z,56.05
2022-08-17T21:31:09.341Z,56.46
2022-08-17T21:33:39.773Z,56.65
2022-08-17T21:36:12.050Z,56.85
2022-08-17T21:38:53.435Z,56.95
2022-08-17T21:41:35.641Z,57.21
2022-08-17T21:44:27.789Z,57.26
2022-08-17T21:47:28.736Z,57.35
2022-08-17T21:50:24.972Z,57.67
2022-08-17T21:53:01.024Z,57.71
2022-08-17T21:55:32.817Z,58.05
2022-08-17T21:58:14.326Z,57.98
2022-08-17T22:00:44.860Z,58.19
2022-08-17T22:03:26.188Z,58.33
2022-08-17T22:05:55.067Z,58.31
2022-08-17T22:08:25.421Z,58.43
2022-08-17T22:11:04.739Z,58.61
2022-08-17T22:13:38.786Z,58.77
2022-08-17T22:16:28.757Z,59.03
2022-08-17T22:19:00.811Z,59.14
2022-08-17T22:21:30.014Z,59.47
2022-08-17T22:24:24.928Z,59.73
2022-08-17T22:27:13.102Z,60.02
2022-08-17T22:29:47.058Z,60.09
2022-08-17T22:32:48.545Z,60.20
2022-08-17T22:35:58.212Z,60.25
2022-08-17T22:38:31.154Z,60.55
2022-08-17T22:41:29.216Z,60.57
2022-08-17T22:44:09.217Z,60.57
2022-08-17T22:46:49.481Z,60.67
2022-08-17T22:49:31.919Z,60.77
2022-08-17T22:52:31.575Z,60.84
2022-08-17T22:55:35.768Z,61.04
2022-08-17T22:58:36.250Z,61.37
2022-08-17T23:01:35.063Z,61.66
2022-08-17T23:04:30.093Z,62.12
2022-08-17T23:07:00.137Z,62.38
2022-08-17T23:09:30.112Z,62.46
2022-08-17T23:12:08.691Z,62.57
2022-08-17T23:14:41.517Z,62.61
2022-08-17T23:17:10.764Z,62.58
2022-08-17T23:19:39.949Z,62.88
2022-08-17T23:22:11.456Z,63.03
2022-08-17T23:24:50.529Z,63.27
2022-08-17T23:27:21.193Z,63.41
2022-08-17T23:29:53.033Z,63.69
2022-08-17T23:32:23.518Z,63.75
2022-08-17T23:34:52.815Z,63.97
2022-08-17T23:37:22.085Z,64.20
2022-08-17T23:39:51.267Z,64.08
2022-08-17T23:42:22.056Z,64.22
2022-08-17T23:44:51.155Z,64.42
2022-08-17T23:47:21.441Z,64.57
2022-08-17T23:49:50.752Z,64.64
2022-08-17T23:52:24.643Z,64.91
2022-08-17T23:57:48.894Z,65.22
